sensor_id;sensor_type;location;lat;lon;timestamp;temperature;humidity
66568;DHT22;53422;49.296;6.900;2022-07-29T00:00:53;21.70;47.40
66568;DHT22;53422;49.296;6.900;2022-07-29T00:03:21;21.60;47.40
66568;DHT22;53422;49.296;6.900;2022-07-29T00:05:53;21.60;47.50
66568;DHT22;53422;49.296;6.900;2022-07-29T00:08:19;21.60;47.60
66568;DHT22;53422;49.296;6.900;2022-07-29T00:10:45;21.60;47.60
66568;DHT22;53422;49.296;6.900;2022-07-29T00:13:11;21.60;47.60
66568;DHT22;53422;49.296;6.900;2022-07-29T00:15:37;21.60;47.70
66568;DHT22;53422;49.296;6.900;2022-07-29T00:18:03;21.50;47.60
66568;DHT22;53422;49.296;6.900;2022-07-29T00:20:28;21.50;47.50
66568;DHT22;53422;49.296;6.900;2022-07-29T00:22:54;21.50;47.60
66568;DHT22;53422;49.296;6.900;2022-07-29T00:25:20;21.50;47.70
66568;DHT22;53422;49.296;6.900;2022-07-29T00:27:45;21.50;47.80
66568;DHT22;53422;49.296;6.900;2022-07-29T00:30:12;21.50;48.00
66568;DHT22;53422;49.296;6.900;2022-07-29T00:32:37;21.40;47.90
66568;DHT22;53422;49.296;6.900;2022-07-29T00:35:04;21.40;47.90
66568;DHT22;53422;49.296;6.900;2022-07-29T00:37:48;21.40;48.00
66568;DHT22;53422;49.296;6.900;2022-07-29T00:40:14;21.40;48.00
66568;DHT22;53422;49.296;6.900;2022-07-29T00:42:48;21.40;48.10
66568;DHT22;53422;49.296;6.900;2022-07-29T00:45:18;21.40;48.10
66568;DHT22;53422;49.296;6.900;2022-07-29T00:47:44;21.30;48.00
66568;DHT22;53422;49.296;6.900;2022-07-29T00:50:11;21.30;48.10
66568;DHT22;53422;49.296;6.900;2022-07-29T00:52:37;21.30;48.10
66568;DHT22;53422;49.296;6.900;2022-07-29T00:55:05;21.30;48.60
66568;DHT22;53422;49.296;6.900;2022-07-29T00:57:31;21.30;48.30
66568;DHT22;53422;49.296;6.900;2022-07-29T00:59:57;21.30;48.30
66568;DHT22;53422;49.296;6.900;2022-07-29T01:02:22;21.30;48.40
66568;DHT22;53422;49.296;6.900;2022-07-29T01:04:49;21.30;48.40
66568;DHT22;53422;49.296;6.900;2022-07-29T01:07:15;21.30;48.40
66568;DHT22;53422;49.296;6.900;2022-07-29T01:09:42;21.20;48.40
66568;DHT22;53422;49.296;6.900;2022-07-29T01:12:08;21.20;48.40
66568;DHT22;53422;49.296;6.900;2022-07-29T01:14:35;21.20;48.50
66568;DHT22;53422;49.296;6.900;2022-07-29T01:17:12;21.20;48.50
66568;DHT22;53422;49.296;6.900;2022-07-29T01:20:20;21.20;48.40
66568;DHT22;53422;49.296;6.900;2022-07-29T01:25:57;21.20;48.60
66568;DHT22;53422;49.296;6.900;2022-07-29T01:31:04;21.20;48.70
66568;DHT22;53422;49.296;6.900;2022-07-29T01:33:33;21.10;49.00
66568;DHT22;53422;49.296;6.900;2022-07-29T01:36:27;21.10;48.70
66568;DHT22;53422;49.296;6.900;2022-07-29T01:39:17;21.10;48.90
66568;DHT22;53422;49.296;6.900;2022-07-29T01:41:57;21.10;48.80
66568;DHT22;53422;49.296;6.900;2022-07-29T01:44:34;21.10;48.80
66568;DHT22;53422;49.296;6.900;2022-07-29T01:47:08;21.10;48.90
66568;DHT22;53422;49.296;6.900;2022-07-29T01:49:37;21.10;48.80
66568;DHT22;53422;49.296;6.900;2022-07-29T01:52:13;21.00;48.80
66568;DHT22;53422;49.296;6.900;2022-07-29T01:54:44;21.00;48.90
66568;DHT22;53422;49.296;6.900;2022-07-29T01:57:15;21.00;48.90
66568;DHT22;53422;49.296;6.900;2022-07-29T01:59:47;21.00;48.90
66568;DHT22;53422;49.296;6.900;2022-07-29T02:02:15;21.00;49.00
66568;DHT22;53422;49.296;6.900;2022-07-29T02:04:43;21.00;49.10
66568;DHT22;53422;49.296;6.900;2022-07-29T02:07:15;21.00;49.10
66568;DHT22;53422;49.296;6.900;2022-07-29T02:09:43;20.90;49.10
66568;DHT22;53422;49.296;6.900;2022-07-29T02:12:10;20.90;49.20
66568;DHT22;53422;49.296;6.900;2022-07-29T02:14:41;20.90;49.20
66568;DHT22;53422;49.296;6.900;2022-07-29T02:17:08;20.90;49.40
66568;DHT22;53422;49.296;6.900;2022-07-29T02:19:35;20.90;49.40
66568;DHT22;53422;49.296;6.900;2022-07-29T02:22:05;20.80;49.40
66568;DHT22;53422;49.296;6.900;2022-07-29T02:24:34;20.80;49.50
66568;DHT22;53422;49.296;6.900;2022-07-29T02:27:01;20.90;49.50
66568;DHT22;53422;49.296;6.900;2022-07-29T02:29:28;20.80;49.40
66568;DHT22;53422;49.296;6.900;2022-07-29T02:31:57;20.80;49.60
66568;DHT22;53422;49.296;6.900;2022-07-29T02:34:24;20.80;49.60
66568;DHT22;53422;49.296;6.900;2022-07-29T02:36:51;20.80;49.60
66568;DHT22;53422;49.296;6.900;2022-07-29T02:39:18;20.70;49.70
66568;DHT22;53422;49.296;6.900;2022-07-29T02:41:49;20.80;49.80
